sensor_id;sensor_type;location;lat;lon;timestamp;pressure;altitude;pressure_sealevel;temperature;humidity
21276;BME280;36472;52.170;20.884;2023-01-15T00:00:05;99868.91;;;5.57;77.91
21276;BME280;36472;52.170;20.884;2023-01-15T00:02:35;99852.19;;;5.61;77.52
21276;BME280;36472;52.170;20.884;2023-01-15T00:05:06;99851.00;;;5.67;77.69
21276;BME280;36472;52.170;20.884;2023-01-15T00:07:37;99847.06;;;5.75;77.22
21276;BME280;36472;52.170;20.884;2023-01-15T00:10:07;99842.66;;;5.60;77.08
21276;BME280;36472;52.170;20.884;2023-01-15T00:12:36;99842.50;;;5.63;77.59
21276;BME280;36472;52.170;20.884;2023-01-15T00:15:06;99824.38;;;5.77;77.16
21276;BME280;36472;52.170;20.884;2023-01-15T00:17:36;99821.09;;;5.90;76.35
21276;BME280;36472;52.170;20.884;2023-01-15T00:20:05;99833.84;;;5.78;76.17
21276;BME280;36472;52.170;20.884;2023-01-15T00:22:36;99818.72;;;5.85;76.97
21276;BME280;36472;52.170;20.884;2023-01-15T00:25:06;99809.31;;;5.98;75.74
21276;BME280;36472;52.170;20.884;2023-01-15T00:27:52;99819.03;;;5.79;76.30
21276;BME280;36472;52.170;20.884;2023-01-15T00:30:21;99813.16;;;5.75;76.63
21276;BME280;36472;52.170;20.884;2023-01-15T00:32:51;99800.97;;;5.76;76.55
21276;BME280;36472;52.170;20.884;2023-01-15T00:35:23;99805.94;;;5.65;76.76
21276;BME280;36472;52.170;20.884;2023-01-15T00:37:53;99799.13;;;5.62;77.50
21276;BME280;36472;52.170;20.884;2023-01-15T00:40:22;99791.47;;;5.75;76.20
21276;BME280;36472;52.170;20.884;2023-01-15T00:42:51;99800.31;;;5.72;76.05
21276;BME280;36472;52.170;20.884;2023-01-15T00:45:21;99787.00;;;5.61;77.00
21276;BME280;36472;52.170;20.884;2023-01-15T00:47:51;99790.13;;;5.52;77.23
21276;BME280;36472;52.170;20.884;2023-01-15T00:50:20;99795.22;;;5.53;77.43
21276;BME280;36472;52.170;20.884;2023-01-15T00:52:49;99782.97;;;5.55;77.68
21276;BME280;36472;52.170;20.884;2023-01-15T00:55:21;99778.09;;;5.49;77.08
21276;BME280;36472;52.170;20.884;2023-01-15T00:57:50;99770.09;;;5.52;77.33
21276;BME280;36472;52.170;20.884;2023-01-15T01:00:19;99777.81;;;5.38;77.74
21276;BME280;36472;52.170;20.884;2023-01-15T01:02:48;99764.53;;;5.42;78.05
21276;BME280;36472;52.170;20.884;2023-01-15T01:05:18;99761.19;;;5.40;77.85
21276;BME280;36472;52.170;20.884;2023-01-15T01:07:46;99753.59;;;5.20;78.28
21276;BME280;36472;52.170;20.884;2023-01-15T01:10:16;99759.16;;;5.30;78.49
21276;BME280;36472;52.170;20.884;2023-01-15T01:12:46;99771.25;;;5.31;78.17
21276;BME280;36472;52.170;20.884;2023-01-15T01:15:19;99763.94;;;5.37;77.92
21276;BME280;36472;52.170;20.884;2023-01-15T01:17:49;99769.97;;;5.22;78.14
21276;BME280;36472;52.170;20.884;2023-01-15T01:20:18;99750.56;;;5.28;79.11
21276;BME280;36472;52.170;20.884;2023-01-15T01:22:48;99751.78;;;5.54;77.47
21276;BME280;36472;52.170;20.884;2023-01-15T01:25:18;99756.78;;;5.25;77.70
21276;BME280;36472;52.170;20.884;2023-01-15T01:27:48;99740.97;;;5.12;78.82
21276;BME280;36472;52.170;20.884;2023-01-15T01:30:17;99757.97;;;5.19;79.00
21276;BME280;36472;52.170;20.884;2023-01-15T01:32:46;99743.78;;;5.25;78.85
21276;BME280;36472;52.170;20.884;2023-01-15T01:35:16;99754.44;;;5.20;78.35
21276;BME280;36472;52.170;20.884;2023-01-15T01:37:49;99744.44;;;5.29;78.22
21276;BME280;36472;52.170;20.884;2023-01-15T01:40:19;99745.94;;;5.33;77.93
21276;BME280;36472;52.170;20.884;2023-01-15T01:42:50;99732.31;;;5.28;78.17
21276;BME280;36472;52.170;20.884;2023-01-15T01:45:24;99732.00;;;5.34;77.57
21276;BME280;36472;52.170;20.884;2023-01-15T01:47:57;99726.06;;;4.98;78.97
21276;BME280;36472;52.170;20.884;2023-01-15T01:50:30;99710.06;;;5.22;77.61
21276;BME280;36472;52.170;20.884;2023-01-15T01:53:06;99716.94;;;5.07;78.84
21276;BME280;36472;52.170;20.884;2023-01-15T01:55:36;99698.53;;;5.10;78.95
21276;BME280;36472;52.170;20.884;2023-01-15T01:58:10;99685.34;;;4.97;79.33
21276;BME280;36472;52.170;20.884;2023-01-15T02:00:45;99674.50;;;4.89;79.30
21276;BME280;36472;52.170;20.884;2023-01-15T02:03:17;99685.34;;;5.13;78.81
21276;BME280;36472;52.170;20.884;2023-01-15T02:05:55;99687.16;;;4.95;78.43
21276;BME280;36472;52.170;20.884;2023-01-15T02:08:27;99676.69;;;4.97;79.23
21276;BME280;36472;52.170;20.884;2023-01-15T02:10:59;99693.47;;;4.91;79.71
21276;BME280;36472;52.170;20.884;2023-01-15T02:13:38;99680.00;;;4.83;79.99
21276;BME280;36472;52.170;20.884;2023-01-15T02:16:16;99695.41;;;4.87;79.68
21276;BME280;36472;52.170;20.884;2023-01-15T02:18:55;99681.78;;;4.82;80.00
21276;BME280;36472;52.170;20.884;2023-01-15T02:21:45;99688.69;;;4.83;80.05
21276;BME280;36472;52.170;20.884;2023-01-15T02:24:28;99689.75;;;4.79;80.17
21276;BME280;36472;52.170;20.884;2023-01-15T02:27:10;99678.44;;;4.80;80.64
21276;BME280;36472;52.170;20.884;2023-01-15T02:29:49;99687.38;;;4.75;80.37
21276;BME280;36472;52.170;20.884;2023-01-15T02:32:33;99683.78;;;4.77;81.04
21276;BME280;36472;52.170;20.884;2023-01-15T02:35:11;99677.47;;;4.99;79.61
21276;BME280;36472;52.170;20.884;2023-01-15T02:37:47;99671.72;;;4.92;79.63
21276;BME280;36472;52.170;20.884;2023-01-15T02:40:20;99670.13;;;4.90;79.65
21276;BME280;36472;52.170;20.884;2023-01-15T02:42:54;99650.03;;;4.92;79.18
21276;BME280;36472;52.170;20.884;2023-01-15T02:45:29;99670.19;;;4.88;79.30
21276;BME280;36472;52.170;20.884;2023-01-15T02:48:10;99670.88;;;4.92;79.34
21276;BME280;36472;52.170;20.884;2023-01-15T02:50:44;99634.41;;;4.92;79.29
21276;BME280;36472;52.170;20.884;2023-01-15T02:53:22;99635.59;;;5.02;78.52
21276;BME280;36472;52.170;20.884;2023-01-15T02:56:00;99612.25;;;4.84;79.26
21276;BME280;36472;52.170;20.884;2023-01-15T02:58:41;99603.00;;;4.95;79.18
21276;BME280;36472;52.170;20.884;2023-01-15T03:01:15;99615.00;;;4.81;79.29
21276;BME280;36472;52.170;20.884;2023-01-15T03:03:54;99599.38;;;4.81;79.71
21276;BME280;36472;52.170;20.884;2023-01-15T03:06:36;99595.78;;;5.00;79.30
21276;BME280;36472;52.170;20.884;2023-01-15T03:09:07;99597.13;;;4.91;78.61
21276;BME280;36472;52.170;20.884;2023-01-15T03:11:43;99585.03;;;4.90;78.90
21276;BME280;36472;52.170;20.884;2023-01-15T03:14:21;99574.28;;;4.96;79.20
21276;BME280;36472;52.170;20.884;2023-01-15T03:17:00;99576.66;;;5.01;77.46
21276;BME280;36472;52.170;20.884;2023-01-15T03:19:41;99566.56;;;4.95;78.65
21276;BME280;36472;52.170;20.884;2023-01-15T03:22:22;99573.53;;;5.10;77.64
21276;BME280;36472;52.170;20.884;2023-01-15T03:24:59;99568.56;;;4.90;78.75
21276;BME280;36472;52.170;20.884;2023-01-15T03:27:34;99588.22;;;4.79;79.24
21276;BME280;36472;52.170;20.884;2023-01-15T03:30:10;99574.72;;;4.89;78.93
21276;BME280;36472;52.170;20.884;2023-01-15T03:32:39;99562.13;;;4.81;78.41
21276;BME280;36472;52.170;20.884;2023-01-15T03:35:44;99577.06;;;4.77;79.10
21276;BME280;36472;52.170;20.884;2023-01-15T03:38:26;99549.94;;;4.81;78.94
21276;BME280;36472;52.170;20.884;2023-01-15T03:41:11;99547.13;;;5.00;77.91
21276;BME280;36472;52.170;20.884;2023-01-15T03:43:56;99535.84;;;4.85;78.22
21276;BME280;36472;52.170;20.884;2023-01-15T03:46:50;99548.09;;;4.99;77.64
21276;BME280;36472;52.170;20.884;2023-01-15T03:49:36;99538.75;;;4.79;78.16
21276;BME280;36472;52.170;20.884;2023-01-15T03:52:19;99543.88;;;4.97;77.85
21276;BME280;36472;52.170;20.884;2023-01-15T03:55:06;99544.22;;;4.91;77.40
21276;BME280;36472;52.170;20.884;2023-01-15T03:57:44;99541.09;;;5.00;77.73
21276;BME280;36472;52.170;20.884;2023-01-15T04:00:21;99518.13;;;4.92;78.61
21276;BME280;36472;52.170;20.884;2023-01-15T04:03:01;99498.78;;;4.96;77.92
21276;BME280;36472;52.170;20.884;2023-01-15T04:05:36;99503.41;;;4.91;78.14
21276;BME280;36472;52.170;20.884;2023-01-15T04:08:07;99503.16;;;4.96;78.11
21276;BME280;36472;52.170;20.884;2023-01-15T04:10:37;99504.44;;;4.89;77.87
21276;BME280;36472;52.170;20.884;2023-01-15T04:13:10;99496.41;;;4.92;78.35
21276;BME280;36472;52.170;20.884;2023-01-15T04:15:41;99502.41;;;4.94;77.86
21276;BME280;36472;52.170;20.884;2023-01-15T04:18:11;99496.34;;;4.93;77.61
21276;BME280;36472;52.170;20.884;2023-01-15T04:20:41;99488.78;;;5.04;77.64
21276;BME280;36472;52.170;20.884;2023-01-15T04:23:11;99491.28;;;4.90;77.53
21276;BME280;36472;52.170;20.884;2023-01-15T04:25:41;99470.97;;;4.97;77.14
21276;BME280;36472;52.170;20.884;2023-01-15T04:28:10;99471.44;;;5.03;77.44
21276;BME280;36472;52.170;20.884;2023-01-15T04:30:40;99458.16;;;4.94;77.18
21276;BME280;36472;52.170;20.884;2023-01-15T04:33:11;99447.94;;;5.05;77.12
21276;BME280;36472;52.170;20.884;2023-01-15T04:35:40;99435.16;;;5.31;75.71
21276;BME280;36472;52.170;20.884;2023-01-15T04:38:09;99439.44;;;5.32;75.44
21276;BME280;36472;52.170;20.884;2023-01-15T04:40:38;99435.75;;;5.05;75.88
21276;BME280;36472;52.170;20.884;2023-01-15T04:43:25;99433.81;;;5.09;76.03
21276;BME280;36472;52.170;20.884;2023-01-15T04:46:11;99435.88;;;4.88;76.52
21276;BME280;36472;52.170;20.884;2023-01-15T04:48:42;99428.81;;;4.90;76.67
21276;BME280;36472;52.170;20.884;2023-01-15T04:51:11;99433.09;;;5.21;75.61
21276;BME280;36472;52.170;20.884;2023-01-15T04:53:40;99430.66;;;5.04;75.17
21276;BME280;36472;52.170;20.884;2023-01-15T04:56:09;99430.31;;;5.24;74.92
21276;BME280;36472;52.170;20.884;2023-01-15T04:58:38;99430.25;;;5.26;74.26
21276;BME280;36472;52.170;20.884;2023-01-15T05:01:11;99429.56;;;5.22;74.54
21276;BME280;36472;52.170;20.884;2023-01-15T05:03:42;99421.16;;;5.17;75.01
21276;BME280;36472;52.170;20.884;2023-01-15T05:06:11;99430.69;;;5.18;74.14
21276;BME280;36472;52.170;20.884;2023-01-15T05:08:41;99425.91;;;5.11;75.01
21276;BME280;36472;52.170;20.884;2023-01-15T05:11:10;99419.13;;;5.22;74.22
21276;BME280;36472;52.170;20.884;2023-01-15T05:13:39;99414.59;;;5.26;73.95
21276;BME280;36472;52.170;20.884;2023-01-15T05:16:11;99408.75;;;5.37;73.47
21276;BME280;36472;52.170;20.884;2023-01-15T05:18:44;99411.53;;;5.34;73.32
21276;BME280;36472;52.170;20.884;2023-01-15T05:21:15;99400.13;;;5.36;73.32
21276;BME280;36472;52.170;20.884;2023-01-15T05:23:45;99384.47;;;5.51;72.50
21276;BME280;36472;52.170;20.884;2023-01-15T05:26:14;99395.91;;;5.48;72.23
21276;BME280;36472;52.170;20.884;2023-01-15T05:28:44;99396.66;;;5.36;73.04
21276;BME280;36472;52.170;20.884;2023-01-15T05:31:16;99410.06;;;5.58;72.35
21276;BME280;36472;52.170;20.884;2023-01-15T05:33:47;99390.59;;;5.50;72.11
21276;BME280;36472;52.170;20.884;2023-01-15T05:36:20;99390.59;;;5.78;70.75
21276;BME280;36472;52.170;20.884;2023-01-15T05:38:50;99390.44;;;5.53;71.53
21276;BME280;36472;52.170;20.884;2023-01-15T05:41:21;99404.94;;;5.71;70.97
21276;BME280;36472;52.170;20.884;2023-01-15T05:44:10;99399.84;;;5.55;71.08
21276;BME280;36472;52.170;20.884;2023-01-15T05:46:41;99399.28;;;5.65;71.49
21276;BME280;36472;52.170;20.884;2023-01-15T05:49:16;99402.44;;;5.70;70.70
21276;BME280;36472;52.170;20.884;2023-01-15T05:51:45;99397.09;;;5.86;70.01
21276;BME280;36472;52.170;20.884;2023-01-15T05:54:18;99400.66;;;5.85;70.38
21276;BME280;36472;52.170;20.884;2023-01-15T05:56:48;99383.88;;;5.89;70.52
21276;BME280;36472;52.170;20.884;2023-01-15T05:59:19;99383.97;;;5.87;69.50
21276;BME280;36472;52.170;20.884;2023-01-15T06:01:49;99387.81;;;5.96;70.31
21276;BME280;36472;52.170;20.884;2023-01-15T06:04:20;99379.06;;;5.83;70.53
21276;BME280;36472;52.170;20.884;2023-01-15T06:06:51;99380.25;;;5.77;72.22
21276;BME280;36472;52.170;20.884;2023-01-15T06:09:21;99373.38;;;5.33;75.39
21276;BME280;36472;52.170;20.884;2023-01-15T06:11:50;99365.28;;;5.23;76.17
21276;BME280;36472;52.170;20.884;2023-01-15T06:14:20;99347.31;;;5.04;78.20
21276;BME280;36472;52.170;20.884;2023-01-15T06:16:49;99358.44;;;4.92;79.78
21276;BME280;36472;52.170;20.884;2023-01-15T06:19:20;99347.19;;;5.05;78.67
21276;BME280;36472;52.170;20.884;2023-01-15T06:21:48;99354.56;;;5.13;77.36
21276;BME280;36472;52.170;20.884;2023-01-15T06:24:18;99356.97;;;5.02;78.91
21276;BME280;36472;52.170;20.884;2023-01-15T06:26:47;99344.06;;;5.15;78.22
21276;BME280;36472;52.170;20.884;2023-01-15T06:29:16;99342.09;;;5.33;76.65
21276;BME280;36472;52.170;20.884;2023-01-15T06:31:47;99339.69;;;5.15;77.74
21276;BME280;36472;52.170;20.884;2023-01-15T06:34:16;99336.00;;;5.19;77.72
21276;BME280;36472;52.170;20.884;2023-01-15T06:36:47;99346.97;;;5.24;76.71
21276;BME280;36472;52.170;20.884;2023-01-15T06:39:16;99351.88;;;5.29;77.20
21276;BME280;36472;52.170;20.884;2023-01-15T06:41:44;99354.09;;;5.21;77.73
21276;BME280;36472;52.170;20.884;2023-01-15T06:44:45;99372.34;;;5.21;78.67
21276;BME280;36472;52.170;20.884;2023-01-15T06:47:32;99361.25;;;5.17;79.73
21276;BME280;36472;52.170;20.884;2023-01-15T06:50:01;99339.50;;;5.04;81.33
21276;BME280;36472;52.170;20.884;2023-01-15T06:52:31;99337.91;;;5.01;82.79
21276;BME280;36472;52.170;20.884;2023-01-15T06:55:00;99334.47;;;5.01;83.51
21276;BME280;36472;52.170;20.884;2023-01-15T06:57:29;99337.91;;;4.87;85.10
21276;BME280;36472;52.170;20.884;2023-01-15T06:59:58;99333.94;;;4.80;86.93
21276;BME280;36472;52.170;20.884;2023-01-15T07:02:27;99346.22;;;4.78;87.98
21276;BME280;36472;52.170;20.884;2023-01-15T07:04:56;99347.91;;;4.79;88.22
21276;BME280;36472;52.170;20.884;2023-01-15T07:07:27;99340.34;;;4.74;90.30
21276;BME280;36472;52.170;20.884;2023-01-15T07:09:58;99337.19;;;4.69;91.07
21276;BME280;36472;52.170;20.884;2023-01-15T07:12:27;99326.75;;;4.55;92.85
21276;BME280;36472;52.170;20.884;2023-01-15T07:14:57;99324.97;;;4.55;93.60
21276;BME280;36472;52.170;20.884;2023-01-15T07:17:26;99327.66;;;4.54;93.84
21276;BME280;36472;52.170;20.884;2023-01-15T07:19:55;99329.69;;;4.48;96.02
21276;BME280;36472;52.170;20.884;2023-01-15T07:22:23;99346.22;;;4.47;96.81
21276;BME280;36472;52.170;20.884;2023-01-15T07:24:53;99335.81;;;4.47;97.76
21276;BME280;36472;52.170;20.884;2023-01-15T07:27:23;99320.19;;;4.47;98.08
21276;BME280;36472;52.170;20.884;2023-01-15T07:29:52;99318.44;;;4.48;98.22
21276;BME280;36472;52.170;20.884;2023-01-15T07:32:21;99315.09;;;4.46;98.97
21276;BME280;36472;52.170;20.884;2023-01-15T07:34:50;99307.19;;;4.47;99.38
21276;BME280;36472;52.170;20.884;2023-01-15T07:37:19;99313.25;;;4.48;99.28
21276;BME280;36472;52.170;20.884;2023-01-15T07:39:48;99309.63;;;4.50;99.27
21276;BME280;36472;52.170;20.884;2023-01-15T07:42:17;99308.44;;;4.56;99.08
21276;BME280;36472;52.170;20.884;2023-01-15T07:45:07;99306.28;;;4.48;99.72
21276;BME280;36472;52.170;20.884;2023-01-15T07:47:50;99298.47;;;4.48;100.00
21276;BME280;36472;52.170;20.884;2023-01-15T07:50:36;99299.56;;;4.44;100.00
21276;BME280;36472;52.170;20.884;2023-01-15T07:53:05;99300.22;;;4.48;100.00
21276;BME280;36472;52.170;20.884;2023-01-15T07:55:34;99294.09;;;4.49;100.00
21276;BME280;36472;52.170;20.884;2023-01-15T07:58:03;99291.38;;;4.66;99.95
21276;BME280;36472;52.170;20.884;2023-01-15T08:00:34;99296.19;;;4.73;98.79
21276;BME280;36472;52.170;20.884;2023-01-15T08:03:03;99290.50;;;4.66;99.59
21276;BME280;36472;52.170;20.884;2023-01-15T08:05:33;99293.88;;;4.68;100.00
21276;BME280;36472;52.170;20.884;2023-01-15T08:08:02;99297.97;;;4.72;100.00
21276;BME280;36472;52.170;20.884;2023-01-15T08:10:31;99299.28;;;4.79;100.00
21276;BME280;36472;52.170;20.884;2023-01-15T08:13:20;99282.75;;;4.80;100.00
21276;BME280;36472;52.170;20.884;2023-01-15T08:16:08;99295.59;;;4.83;100.00
21276;BME280;36472;52.170;20.884;2023-01-15T08:18:38;99280.41;;;4.90;100.00
21276;BME280;36472;52.170;20.884;2023-01-15T08:21:13;99283.31;;;4.85;100.00
21276;BME280;36472;52.170;20.884;2023-01-15T08:23:42;99288.91;;;4.94;100.00
21276;BME280;36472;52.170;20.884;2023-01-15T08:26:13;99284.34;;;4.97;100.00
21276;BME280;36472;52.170;20.884;2023-01-15T08:28:42;99286.19;;;4.95;100.00
21276;BME280;36472;52.170;20.884;2023-01-15T08:31:12;99261.94;;;5.09;100.00
21276;BME280;36472;52.170;20.884;2023-01-15T08:33:41;99271.06;;;5.16;100.00
21276;BME280;36472;52.170;20.884;2023-01-15T08:36:10;99257.66;;;4.94;100.00
21276;BME280;36472;52.170;20.884;2023-01-15T08:38:39;99263.50;;;5.12;100.00
21276;BME280;36472;52.170;20.884;2023-01-15T08:41:08;99273.63;;;5.02;100.00
21276;BME280;36472;52.170;20.884;2023-01-15T08:43:37;99259.22;;;5.11;100.00
21276;BME280;36472;52.170;20.884;2023-01-15T08:46:07;99255.88;;;5.09;100.00
21276;BME280;36472;52.170;20.884;2023-01-15T08:48:37;99265.47;;;5.08;100.00
21276;BME280;36472;52.170;20.884;2023-01-15T08:51:09;99258.59;;;5.21;100.00
21276;BME280;36472;52.170;20.884;2023-01-15T08:53:39;99263.41;;;5.13;100.00
21276;BME280;36472;52.170;20.884;2023-01-15T08:56:11;99267.41;;;5.19;100.00
21276;BME280;36472;52.170;20.884;2023-01-15T08:58:41;99257.28;;;5.29;100.00
21276;BME280;36472;52.170;20.884;2023-01-15T09:01:11;99268.72;;;5.40;100.00
21276;BME280;36472;52.170;20.884;2023-01-15T09:03:44;99268.44;;;5.31;100.00
21276;BME280;36472;52.170;20.884;2023-01-15T09:06:13;99257.84;;;5.19;100.00
21276;BME280;36472;52.170;20.884;2023-01-15T09:08:42;99259.91;;;5.14;100.00
21276;BME280;36472;52.170;20.884;2023-01-15T09:11:11;99254.47;;;5.17;100.00
21276;BME280;36472;52.170;20.884;2023-01-15T09:13:40;99263.25;;;5.16;100.00
21276;BME280;36472;52.170;20.884;2023-01-15T09:16:11;99254.19;;;5.22;100.00
21276;BME280;36472;52.170;20.884;2023-01-15T09:18:40;99246.75;;;5.16;100.00
21276;BME280;36472;52.170;20.884;2023-01-15T09:21:11;99241.53;;;5.16;100.00
21276;BME280;36472;52.170;20.884;2023-01-15T09:23:40;99257.28;;;5.14;100.00
21276;BME280;36472;52.170;20.884;2023-01-15T09:26:26;99245.94;;;5.15;100.00
21276;BME280;36472;52.170;20.884;2023-01-15T09:28:57;99240.81;;;5.28;100.00
21276;BME280;36472;52.170;20.884;2023-01-15T09:31:26;99251.69;;;5.35;100.00
21276;BME280;36472;52.170;20.884;2023-01-15T09:33:56;99245.16;;;5.28;100.00
21276;BME280;36472;52.170;20.884;2023-01-15T09:36:29;99238.94;;;5.30;100.00
21276;BME280;36472;52.170;20.884;2023-01-15T09:39:00;99245.84;;;5.17;100.00
21276;BME280;36472;52.170;20.884;2023-01-15T09:41:50;99241.00;;;5.11;100.00
21276;BME280;36472;52.170;20.884;2023-01-15T09:45:09;99242.88;;;5.23;100.00
21276;BME280;36472;52.170;20.884;2023-01-15T09:47:56;99235.16;;;5.21;100.00
21276;BME280;36472;52.170;20.884;2023-01-15T09:50:41;99244.06;;;5.17;100.00
21276;BME280;36472;52.170;20.884;2023-01-15T09:53:39;99227.50;;;5.18;100.00
21276;BME280;36472;52.170;20.884;2023-01-15T09:56:18;99226.47;;;5.21;100.00
21276;BME280;36472;52.170;20.884;2023-01-15T09:58:50;99223.50;;;5.27;100.00
21276;BME280;36472;52.170;20.884;2023-01-15T10:01:26;99218.97;;;5.16;100.00
21276;BME280;36472;52.170;20.884;2023-01-15T10:04:02;99218.00;;;5.32;100.00
21276;BME280;36472;52.170;20.884;2023-01-15T10:06:40;99215.88;;;5.24;100.00
21276;BME280;36472;52.170;20.884;2023-01-15T10:09:19;99210.97;;;5.19;100.00
21276;BME280;36472;52.170;20.884;2023-01-15T10:11:57;99210.56;;;5.25;100.00
21276;BME280;36472;52.170;20.884;2023-01-15T10:14:56;99205.91;;;5.31;100.00
21276;BME280;36472;52.170;20.884;2023-01-15T10:17:36;99199.13;;;5.28;100.00
21276;BME280;36472;52.170;20.884;2023-01-15T10:20:17;99197.53;;;5.25;100.00
21276;BME280;36472;52.170;20.884;2023-01-15T10:23:14;99207.97;;;5.25;100.00
21276;BME280;36472;52.170;20.884;2023-01-15T10:25:53;99200.78;;;5.29;100.00
21276;BME280;36472;52.170;20.884;2023-01-15T10:28:29;99192.06;;;5.30;100.00
21276;BME280;36472;52.170;20.884;2023-01-15T10:31:05;99186.78;;;5.44;100.00
21276;BME280;36472;52.170;20.884;2023-01-15T10:33:58;99191.34;;;5.55;100.00
21276;BME280;36472;52.170;20.884;2023-01-15T10:36:35;99195.25;;;5.48;100.00
21276;BME280;36472;52.170;20.884;2023-01-15T10:39:16;99183.81;;;5.51;100.00
21276;BME280;36472;52.170;20.884;2023-01-15T10:42:02;99182.56;;;5.56;100.00
21276;BME280;36472;52.170;20.884;2023-01-15T10:44:46;99177.91;;;5.61;100.00
21276;BME280;36472;52.170;20.884;2023-01-15T10:47:23;99172.41;;;5.66;100.00
21276;BME280;36472;52.170;20.884;2023-01-15T10:49:54;99162.81;;;5.67;100.00
21276;BME280;36472;52.170;20.884;2023-01-15T10:52:31;99171.69;;;5.77;100.00
21276;BME280;36472;52.170;20.884;2023-01-15T10:55:13;99161.38;;;5.75;100.00
21276;BME280;36472;52.170;20.884;2023-01-15T10:57:53;99152.72;;;5.75;100.00
21276;BME280;36472;52.170;20.884;2023-01-15T11:00:38;99154.72;;;5.84;100.00
21276;BME280;36472;52.170;20.884;2023-01-15T11:03:15;99149.91;;;5.78;100.00
21276;BME280;36472;52.170;20.884;2023-01-15T11:05:47;99149.63;;;5.83;100.00
21276;BME280;36472;52.170;20.884;2023-01-15T11:08:23;99151.38;;;5.82;100.00
21276;BME280;36472;52.170;20.884;2023-01-15T11:11:21;99148.69;;;5.84;100.00
21276;BME280;36472;52.170;20.884;2023-01-15T11:14:12;99150.25;;;5.86;100.00
21276;BME280;36472;52.170;20.884;2023-01-15T11:17:00;99147.22;;;5.79;100.00
21276;BME280;36472;52.170;20.884;2023-01-15T11:19:51;99147.31;;;5.78;100.00
21276;BME280;36472;52.170;20.884;2023-01-15T11:22:20;99136.97;;;5.76;100.00
21276;BME280;36472;52.170;20.884;2023-01-15T11:24:53;99139.78;;;5.73;100.00
21276;BME280;36472;52.170;20.884;2023-01-15T11:27:26;99145.72;;;5.75;100.00
21276;BME280;36472;52.170;20.884;2023-01-15T11:30:00;99141.81;;;5.83;100.00
21276;BME280;36472;52.170;20.884;2023-01-15T11:32:32;99144.63;;;5.79;100.00
21276;BME280;36472;52.170;20.884;2023-01-15T11:35:15;99129.59;;;5.83;100.00
21276;BME280;36472;52.170;20.884;2023-01-15T11:37:44;99143.56;;;5.82;100.00
21276;BME280;36472;52.170;20.884;2023-01-15T11:40:17;99141.81;;;5.83;100.00
21276;BME280;36472;52.170;20.884;2023-01-15T11:42:47;99134.94;;;5.94;100.00
21276;BME280;36472;52.170;20.884;2023-01-15T11:45:46;99123.75;;;5.92;100.00
21276;BME280;36472;52.170;20.884;2023-01-15T11:48:41;99127.03;;;5.96;100.00
21276;BME280;36472;52.170;20.884;2023-01-15T11:51:38;99128.06;;;5.93;100.00
21276;BME280;36472;52.170;20.884;2023-01-15T11:54:12;99125.00;;;5.87;100.00
21276;BME280;36472;52.170;20.884;2023-01-15T11:56:45;99115.31;;;5.89;100.00
21276;BME280;36472;52.170;20.884;2023-01-15T11:59:17;99114.84;;;5.96;100.00
21276;BME280;36472;52.170;20.884;2023-01-15T12:01:52;99114.19;;;5.93;100.00
21276;BME280;36472;52.170;20.884;2023-01-15T12:04:34;99110.38;;;5.98;100.00
21276;BME280;36472;52.170;20.884;2023-01-15T12:07:11;99104.41;;;5.96;100.00
21276;BME280;36472;52.170;20.884;2023-01-15T12:10:04;99109.00;;;6.06;100.00
21276;BME280;36472;52.170;20.884;2023-01-15T12:13:00;99103.88;;;6.04;100.00
21276;BME280;36472;52.170;20.884;2023-01-15T12:15:43;99108.81;;;6.09;100.00
21276;BME280;36472;52.170;20.884;2023-01-15T12:18:47;99103.78;;;6.06;100.00
21276;BME280;36472;52.170;20.884;2023-01-15T12:21:48;99104.75;;;6.30;99.71
21276;BME280;36472;52.170;20.884;2023-01-15T12:25:04;99101.91;;;6.33;97.54
21276;BME280;36472;52.170;20.884;2023-01-15T12:27:53;99107.88;;;6.48;96.41
21276;BME280;36472;52.170;20.884;2023-01-15T12:30:35;99095.53;;;6.50;95.64
21276;BME280;36472;52.170;20.884;2023-01-15T12:33:19;99104.63;;;6.58;94.37
21276;BME280;36472;52.170;20.884;2023-01-15T12:36:00;99110.66;;;6.71;91.64
21276;BME280;36472;52.170;20.884;2023-01-15T12:38:50;99109.16;;;6.80;90.35
21276;BME280;36472;52.170;20.884;2023-01-15T12:41:29;99100.97;;;6.73;89.37
21276;BME280;36472;52.170;20.884;2023-01-15T12:44:17;99106.94;;;6.99;89.17
21276;BME280;36472;52.170;20.884;2023-01-15T12:47:15;99108.28;;;7.05;87.48
21276;BME280;36472;52.170;20.884;2023-01-15T12:49:51;99110.59;;;6.97;87.76
21276;BME280;36472;52.170;20.884;2023-01-15T12:52:32;99103.16;;;7.03;88.32
21276;BME280;36472;52.170;20.884;2023-01-15T12:55:12;99099.63;;;7.04;86.21
21276;BME280;36472;52.170;20.884;2023-01-15T12:57:46;99108.75;;;7.23;84.21
21276;BME280;36472;52.170;20.884;2023-01-15T13:00:22;99101.66;;;7.12;84.92
21276;BME280;36472;52.170;20.884;2023-01-15T13:03:08;99109.78;;;7.20;85.21
21276;BME280;36472;52.170;20.884;2023-01-15T13:05:46;99117.31;;;7.25;83.72
21276;BME280;36472;52.170;20.884;2023-01-15T13:08:23;99101.41;;;7.28;83.67
21276;BME280;36472;52.170;20.884;2023-01-15T13:10:55;99101.53;;;7.51;80.93
21276;BME280;36472;52.170;20.884;2023-01-15T13:13:29;99099.69;;;7.40;82.42
21276;BME280;36472;52.170;20.884;2023-01-15T13:16:12;99108.69;;;7.36;80.72
21276;BME280;36472;52.170;20.884;2023-01-15T13:18:55;99102.91;;;7.43;81.41
21276;BME280;36472;52.170;20.884;2023-01-15T13:21:33;99101.72;;;7.36;81.00
21276;BME280;36472;52.170;20.884;2023-01-15T13:27:42;99097.84;;;7.53;80.18
21276;BME280;36472;52.170;20.884;2023-01-15T13:30:36;99109.84;;;7.56;79.73
21276;BME280;36472;52.170;20.884;2023-01-15T13:33:23;99101.09;;;7.57;78.22
21276;BME280;36472;52.170;20.884;2023-01-15T13:36:03;99112.03;;;7.62;78.16
21276;BME280;36472;52.170;20.884;2023-01-15T13:38:40;99112.38;;;7.57;76.76
21276;BME280;36472;52.170;20.884;2023-01-15T13:41:19;99114.41;;;7.65;77.50
21276;BME280;36472;52.170;20.884;2023-01-15T13:44:04;99111.28;;;7.60;77.82